^^
NorthLandsweather Station Historical Data
 
Daily Summary for December 15, 2018 Units:  English    Metric   Both
Daily Weekly Monthly Yearly Custom
  Current: High: Low: Average:
Temperature: 12.2 °F 19.6 °F 12.2 °F 15.2 °F
Dew Point: 8.8 °F 16.4 °F 8.8 °F 11.9 °F
Humidity: 86% 87% 86% 87%
Wind Speed: 0mph 0mph 0mph 0mph
Wind Gust: 0mph 0mph - -
WindCalm - -
Pressure: 30.27 in 30.29 in 30.25 in -
Precipitation: 0 in      
Historical Graphs
 
 
Tabular Data for December 15, 2018
Time Temperature Dew Point Pressure Wind Wind Speed Wind Gust Humidity Rainfall Rate (Hourly) solar
00:04 19.6 °F 16.4 °F 30.27 in Calm     87% 0 in 0.00 W/m2
00:09 19.4 °F 16.2 °F 30.27 in Calm     87% 0 in 0.00 W/m2
00:14 19.4 °F 16.2 °F 30.27 in Calm     87% 0 in 0.00 W/m2
00:19 19.2 °F 16 °F 30.27 in Calm     87% 0 in 0.00 W/m2
00:24 19 °F 15.8 °F 30.27 in Calm     87% 0 in 0.00 W/m2
00:29 18.7 °F 15.5 °F 30.27 in Calm     87% 0 in 0.00 W/m2
00:34 18.5 °F 15.3 °F 30.27 in Calm     87% 0 in 0.00 W/m2
00:39 18.5 °F 15.3 °F 30.27 in Calm     87% 0 in 0.00 W/m2
00:44 18.2 °F 15 °F 30.27 in Calm     87% 0 in 0.00 W/m2
00:49 18.2 °F 15 °F 30.27 in Calm     87% 0 in 0.00 W/m2
00:54 18.2 °F 15 °F 30.27 in Calm     87% 0 in 0.00 W/m2
00:59 18.1 °F 14.9 °F 30.27 in Calm     87% 0 in 0.00 W/m2
01:04 18.1 °F 14.9 °F 30.27 in Calm     87% 0 in 0.00 W/m2
01:09 18 °F 14.8 °F 30.27 in Calm     87% 0 in 0.00 W/m2
01:14 18 °F 14.8 °F 30.27 in Calm     87% 0 in 0.00 W/m2
01:19 18 °F 14.8 °F 30.27 in Calm     87% 0 in 0.00 W/m2
01:24 18 °F 14.8 °F 30.27 in Calm     87% 0 in 0.00 W/m2
01:29 18.1 °F 14.9 °F 30.28 in Calm     87% 0 in 0.00 W/m2
01:34 18 °F 14.8 °F 30.28 in Calm     87% 0 in 0.00 W/m2
01:39 17.8 °F 14.6 °F 30.28 in Calm     87% 0 in 0.00 W/m2
01:44 17.5 °F 14 °F 30.28 in Calm     86% 0 in 0.00 W/m2
01:49 17.3 °F 13.8 °F 30.28 in Calm     86% 0 in 0.00 W/m2
01:54 17.2 °F 14 °F 30.28 in Calm     87% 0 in 0.00 W/m2
01:59 17.3 °F 14.1 °F 30.28 in Calm     87% 0 in 0.00 W/m2
02:04 17.3 °F 14.1 °F 30.28 in Calm     87% 0 in 0.00 W/m2
02:09 17.3 °F 13.8 °F 30.28 in Calm     86% 0 in 0.00 W/m2
02:14 17.1 °F 13.6 °F 30.28 in Calm     86% 0 in 0.00 W/m2
02:19 16.8 °F 13.3 °F 30.28 in Calm     86% 0 in 0.00 W/m2
02:24 16.4 °F 12.9 °F 30.28 in Calm     86% 0 in 0.00 W/m2
02:29 16 °F 12.6 °F 30.28 in Calm     86% 0 in 0.00 W/m2
02:34 15.8 °F 12.4 °F 30.29 in Calm     86% 0 in 0.00 W/m2
02:39 15.6 °F 12.4 °F 30.29 in Calm     87% 0 in 0.00 W/m2
02:44 15.6 °F 12.4 °F 30.28 in Calm     87% 0 in 0.00 W/m2
02:49 15.7 °F 12.5 °F 30.28 in Calm     87% 0 in 0.00 W/m2
02:54 15.8 °F 12.6 °F 30.28 in Calm     87% 0 in 0.00 W/m2
02:59 15.7 °F 12.5 °F 30.28 in Calm     87% 0 in 0.00 W/m2
03:04 15.5 °F 12.1 °F 30.28 in Calm     86% 0 in 0.00 W/m2
03:09 15.3 °F 11.9 °F 30.28 in Calm     86% 0 in 0.00 W/m2
03:14 15 °F 11.6 °F 30.28 in Calm     86% 0 in 0.00 W/m2
03:19 14.8 °F 11.4 °F 30.28 in Calm     86% 0 in 0.00 W/m2
03:24 14.7 °F 11.5 °F 30.28 in Calm     87% 0 in 0.00 W/m2
03:29 14.9 °F 11.7 °F 30.28 in Calm     87% 0 in 0.00 W/m2
03:34 15 °F 11.8 °F 30.28 in Calm     87% 0 in 0.00 W/m2
03:39 14.9 °F 11.5 °F 30.28 in Calm     86% 0 in 0.00 W/m2
03:44 14.8 °F 11.4 °F 30.28 in Calm     86% 0 in 0.00 W/m2
03:49 14.7 °F 11.3 °F 30.27 in Calm     86% 0 in 0.00 W/m2
03:54 14.6 °F 11.2 °F 30.28 in Calm     86% 0 in 0.00 W/m2
03:59 14.5 °F 11.1 °F 30.27 in Calm     86% 0 in 0.00 W/m2
04:04 14.3 °F 10.9 °F 30.27 in Calm     86% 0 in 0.00 W/m2
04:09 14.2 °F 11 °F 30.27 in Calm     87% 0 in 0.00 W/m2
04:14 14.1 °F 10.7 °F 30.27 in Calm     86% 0 in 0.00 W/m2
04:19 14.1 °F 10.7 °F 30.26 in Calm     86% 0 in 0.00 W/m2
04:24 14.1 °F 10.7 °F 30.26 in Calm     86% 0 in 0.00 W/m2
04:29 14 °F 10.6 °F 30.26 in Calm     86% 0 in 0.00 W/m2
04:34 13.9 °F 10.7 °F 30.26 in Calm     87% 0 in 0.00 W/m2
04:39 13.8 °F 10.4 °F 30.25 in Calm     86% 0 in 0.00 W/m2
04:44 13.7 °F 10.3 °F 30.25 in Calm     86% 0 in 0.00 W/m2
04:49 13.5 °F 10.1 °F 30.25 in Calm     86% 0 in 0.00 W/m2
04:54 13.4 °F 10 °F 30.25 in Calm     86% 0 in 0.00 W/m2
04:59 13.4 °F 10 °F 30.25 in Calm     86% 0 in 0.00 W/m2
05:04 13.3 °F 9.9 °F 30.25 in Calm     86% 0 in 0.00 W/m2
05:09 13.2 °F 10.1 °F 30.25 in Calm     87% 0 in 0.00 W/m2
05:14 13.2 °F 9.8 °F 30.26 in Calm     86% 0 in 0.00 W/m2
05:19 13.2 °F 9.8 °F 30.26 in Calm     86% 0 in 0.00 W/m2
05:24 13.1 °F 10 °F 30.26 in Calm     87% 0 in 0.00 W/m2
05:29 13 °F 9.9 °F 30.26 in Calm     87% 0 in 0.00 W/m2
05:34 13 °F 9.6 °F 30.26 in Calm     86% 0 in 0.00 W/m2
05:39 12.9 °F 9.5 °F 30.26 in Calm     86% 0 in 0.00 W/m2
05:44 12.7 °F 9.3 °F 30.26 in Calm     86% 0 in 0.00 W/m2
05:49 12.6 °F 9.5 °F 30.26 in Calm     87% 0 in 0.00 W/m2
05:54 12.6 °F 9.5 °F 30.27 in Calm     87% 0 in 0.00 W/m2
05:59 12.5 °F 9.4 °F 30.27 in Calm     87% 0 in 0.00 W/m2
06:04 12.4 °F 9.3 °F 30.27 in Calm     87% 0 in 0.00 W/m2
06:09 12.5 °F 9.4 °F 30.27 in Calm     87% 0 in 0.00 W/m2
06:14 12.7 °F 9.6 °F 30.27 in Calm     87% 0 in 0.00 W/m2
06:19 12.7 °F 9.6 °F 30.27 in Calm     87% 0 in 0.00 W/m2
06:24 12.6 °F 9.5 °F 30.27 in Calm     87% 0 in 0.00 W/m2
06:29 12.5 °F 9.1 °F 30.27 in Calm     86% 0 in 0.00 W/m2
06:34 12.4 °F 9 °F 30.27 in Calm     86% 0 in 0.00 W/m2
06:39 12.5 °F 9.4 °F 30.27 in Calm     87% 0 in 0.00 W/m2
06:44 12.6 °F 9.5 °F 30.27 in Calm     87% 0 in 0.00 W/m2
06:49 12.7 °F 9.3 °F 30.27 in Calm     86% 0 in 0.00 W/m2
06:54 12.7 °F 9.3 °F 30.27 in Calm     86% 0 in 0.00 W/m2
06:59 12.7 °F 9.3 °F 30.28 in Calm     86% 0 in 0.00 W/m2
07:04 12.5 °F 9.1 °F 30.27 in Calm     86% 0 in 0.00 W/m2
07:09 12.4 °F 9 °F 30.27 in Calm     86% 0 in 0.00 W/m2
07:14 12.2 °F 8.8 °F 30.27 in Calm     86% 0 in 0.00 W/m2
Winter, Wisconsin USA
Compliments of Weather Underground - 2 mb